Bei Facebook empfehlenBei Twitter postenGoogle plusPinterest

Das Wetter im Erzgebirge am 10.04.2016

Wetter und Klima am 10.04.2016 Holzhau im Erzgebirge (630m ü.NN)
Letzte gemessene Temperatur und Uhrzeit der Messung23:45:00 Uhr3.10 °C
Temperatur (Maximum / Höchstwert) und Uhrzeit der Messung15:45:00 Uhr5.20 °C
Temperatur (Minimum / Tiefstwert) und Uhrzeit der Messung04:00:002.10 °C
Errechneter Absolutwert der Temperaturschwankungen zwischen Tmin und Tmax des Tages3.10 K
Errechnete Tagesmitteltemperatur3.58125 °C
Gesamt - Niederschlag des Tages (in flüssiger Form)2.07 Liter / m²
Luftdruck (Maximum / Höchstwert) und Zeitpunkt der Messung23:30:00 Uhr1011.50 hPa
Luftdruck (Minimum / Tiefstwert) und Zeitpunkt der Messung01:00:00 Uhr1006.60 hPa
Errechneter Absolutwert der Luftdruckschwankungen des Tages4.90 hPa
Höchste gemessene Windgeschwindigkeit und Uhrzeit der Messung23:45:00 Uhr0.00 km/h
Errechnete Windhäufigkeit in Relation zu den Messwerten des Tages0.00000 %
Niedrigste Windkühle (Windchill) und Zeitpunkt der Messung04:00:00 Uhr2.10 °C
Taupunkt (Maximum / Höchstwert) und Uhrzeit der Messung12:00:00 Uhr3.70 °C
Taupunkt (Minimum / Tiefstwert) und Uhrzeit der Messung04:00:000.30 °C
Anzahl der automatisch eingelesenen Messwerte 96

Detaillierte Wetter- und Klima- Messwerte für den 10.04.2016 in Holzhau im Erzgebirge (630m ü.NN)
ZeitTemperaturLuftdruckRel. LuftfeuchteWindWindrichtungWindchillTaupunktNiederschlag l/m²
23:45:003.10 °C1011.40 hPa92.00 %1.90 °C2.07
23:30:003.10 °C1011.50 hPa92.00 %1.90 °C2.07
23:15:003.00 °C1011.30 hPa92.00 %1.80 °C2.07
23:00:003.00 °C1011.30 hPa92.00 %1.80 °C2.07
22:45:003.10 °C1011.40 hPa92.00 %1.90 °C2.07
22:30:003.00 °C1011.40 hPa92.00 %1.80 °C2.07
22:15:003.10 °C1011.50 hPa92.00 %1.90 °C2.07
22:00:003.10 °C1011.40 hPa91.00 %1.80 °C2.07
21:45:003.20 °C1011.30 hPa91.00 %1.90 °C2.07
21:30:003.20 °C1011.30 hPa91.00 %1.90 °C2.07
21:15:003.30 °C1011.30 hPa91.00 %2.00 °C2.07
21:00:003.30 °C1011.30 hPa91.00 %2.00 °C2.07
20:45:003.40 °C1011.30 hPa91.00 %2.10 °C2.07
20:30:003.50 °C1011.40 hPa91.00 %2.20 °C2.07
20:15:003.60 °C1011.30 hPa90.00 %2.10 °C2.07
20:00:003.60 °C1011.40 hPa90.00 %2.10 °C1.55
19:45:003.60 °C1011.20 hPa90.00 %2.10 °C1.55
19:30:003.80 °C1011.40 hPa90.00 %2.30 °C1.55
19:15:003.80 °C1011.20 hPa89.00 %2.20 °C1.55
19:00:003.90 °C1011.00 hPa90.00 %2.40 °C1.55
18:45:003.90 °C1011.00 hPa90.00 %2.40 °C1.55
18:30:004.10 °C1010.90 hPa89.00 %2.50 °C1.55
18:15:004.10 °C1010.80 hPa89.00 %2.50 °C1.55
18:00:004.10 °C1010.80 hPa89.00 %2.50 °C1.55
17:45:004.20 °C1010.70 hPa89.00 %2.60 °C1.55
17:30:004.20 °C1010.60 hPa89.00 %2.60 °C1.55
17:15:004.20 °C1010.50 hPa88.00 %2.40 °C1.55
17:00:004.40 °C1010.50 hPa88.00 %2.60 °C1.55
16:45:004.50 °C1010.30 hPa88.00 %2.70 °C1.55
16:30:004.50 °C1010.30 hPa88.00 %2.70 °C1.55
16:15:004.60 °C1010.40 hPa88.00 %2.80 °C1.55
16:00:004.90 °C1010.40 hPa88.00 %3.10 °C1.55
15:45:005.20 °C1010.30 hPa88.00 %3.40 °C1.55
15:30:004.90 °C1010.50 hPa88.00 %3.10 °C1.55
15:15:004.80 °C1010.30 hPa89.00 %3.10 °C1.55
15:00:004.40 °C1010.30 hPa88.00 %2.60 °C1.55
14:45:004.50 °C1010.30 hPa88.00 %2.70 °C1.55
14:30:004.70 °C1010.30 hPa88.00 %2.90 °C1.55
14:15:004.90 °C1010.10 hPa88.00 %3.10 °C1.55
14:00:004.90 °C1010.20 hPa89.00 %3.20 °C1.55
13:45:004.80 °C1010.00 hPa89.00 %3.10 °C1.55
13:30:004.40 °C1009.80 hPa89.00 %2.80 °C1.55
13:15:004.40 °C1009.90 hPa88.00 %2.60 °C1.55
13:00:004.50 °C1010.10 hPa88.00 %2.70 °C1.55
12:45:004.90 °C1010.20 hPa88.00 %3.10 °C1.55
12:30:004.90 °C1010.10 hPa88.00 %3.10 °C1.55
12:15:005.10 °C1010.20 hPa89.00 %3.40 °C1.55
12:00:005.20 °C1009.90 hPa90.00 %3.70 °C1.55
11:45:004.20 °C1009.90 hPa90.00 %2.70 °C1.55
11:30:004.30 °C1009.90 hPa90.00 %2.80 °C1.55
11:15:004.20 °C1009.70 hPa90.00 %2.70 °C1.55
11:00:004.20 °C1009.70 hPa90.00 %2.70 °C1.55
10:45:004.30 °C1009.80 hPa90.00 %2.80 °C1.55
10:30:003.90 °C1009.60 hPa90.00 %2.40 °C1.55
10:15:003.90 °C1009.50 hPa90.00 %2.40 °C1.55
10:00:003.90 °C1009.40 hPa91.00 %2.60 °C1.55
09:45:003.60 °C1009.60 hPa91.00 %2.30 °C1.55
09:30:003.60 °C1009.30 hPa90.00 %2.10 °C1.55
09:15:003.60 °C1009.00 hPa91.00 %2.30 °C1.55
09:00:003.40 °C1009.10 hPa90.00 %1.90 °C1.55
08:45:003.60 °C1008.90 hPa90.00 %2.10 °C1.55
08:30:003.80 °C1008.70 hPa91.00 %2.50 °C1.55
08:15:003.80 °C1008.50 hPa91.00 %2.50 °C1.55
08:00:003.90 °C1008.40 hPa91.00 %2.60 °C1.55
07:45:003.60 °C1008.20 hPa91.00 %2.30 °C1.55
07:30:003.20 °C1008.40 hPa91.00 %1.90 °C1.55
07:15:002.90 °C1008.00 hPa90.00 %1.40 °C1.55
07:00:002.80 °C1008.10 hPa90.00 %1.30 °C1.55
06:45:002.70 °C1008.40 hPa90.00 %1.20 °C1.55
06:30:002.70 °C1008.10 hPa90.00 %1.20 °C1.55
06:15:002.60 °C1008.10 hPa90.00 %1.10 °C1.55
06:00:002.50 °C1008.00 hPa89.00 %0.90 °C1.55
05:45:002.40 °C1008.00 hPa89.00 %0.80 °C1.55
05:30:002.40 °C1007.80 hPa89.00 %0.80 °C1.55
05:15:002.30 °C1007.70 hPa88.00 %0.50 °C1.55
05:00:002.30 °C1007.60 hPa88.00 %0.50 °C1.04
04:45:002.30 °C1007.40 hPa88.00 %0.50 °C1.04
04:30:002.20 °C1007.40 hPa88.00 %0.40 °C1.04
04:15:002.20 °C1007.30 hPa88.00 %0.40 °C1.04
04:00:002.10 °C1007.10 hPa88.00 %0.30 °C1.04
03:45:002.10 °C1007.10 hPa88.00 %0.30 °C1.04
03:30:002.20 °C1007.10 hPa87.00 %0.30 °C1.04
03:15:002.30 °C1007.00 hPa87.00 %0.40 °C0.52
03:00:002.40 °C1006.90 hPa87.00 %0.50 °C0.52
02:45:002.80 °C1006.90 hPa86.00 %0.70 °C 
02:30:002.90 °C1006.80 hPa86.00 %0.80 °C 
02:15:003.10 °C1006.80 hPa86.00 %1.00 °C 
02:00:003.30 °C1006.70 hPa86.00 %1.20 °C 
01:45:003.10 °C1006.80 hPa85.00 %0.80 °C 
01:30:003.10 °C1006.80 hPa84.00 %0.70 °C 
01:15:002.90 °C1006.70 hPa84.00 %0.50 °C 
01:00:002.90 °C1006.60 hPa84.00 %0.50 °C 
00:45:003.00 °C1006.70 hPa83.00 %0.40 °C 
00:30:003.10 °C1006.80 hPa82.00 %0.30 °C 
00:15:003.10 °C1006.80 hPa82.00 %0.30 °C 
00:00:003.20 °C1006.80 hPa81.00 %0.30 °C 

Permanenter Link zu dieser Seite: Wetter im Erzgebirge am 10.04.2016
Performance-Info: Die Erstellung der Seite / Statistik(en) / Tabelle(n) erforderte 5 Datenbankserver-Abfrage(n) und dauerte 95 Millisekunden. (Dieser Messwert ist von der Gesamt-Auslastung des Servers abhängig.)
Erzgebirge - Wetter | Erzgebirge - Wetter (Mobilgeräte) | Komplette Klimadatenbank